1929 NOT_NAMED (1929249N13144)


IBTrACS version v04r00. Visit IBTrACS website for data access.
Please direct all questions to the IBTrACS Q and A forum

Storm track - Intensity - Wind Radii - Intensity Data - Source Data - All data

Summary Information

Storm ID 1929249N13144
Start Sep 5 22Z
End Sep 9 22Z
ATCF IDs
Track status Best track data.

Storm track plot

Map of storm track

Intensity plots

No Intensity information for this storm


Radial wind information

No radial wind information for this storm


Position and Intensity Table

BASIN ISO_TIME_________ NATURE LAT LON
degrees north degrees east
WP 1929-09-05 22:00:00 NR 12.70 143.80
WP 1929-09-06 00:00:00 NR 12.99 143.07
WP 03:00:00 NR 13.42 142.00
WP 06:00:00 NR 13.83 140.96
WP 09:00:00 NR 14.19 140.00
WP 10:00:00 NR 14.30 139.70
WP 12:00:00 NR 14.50 139.13
WP 15:00:00 NR 14.78 138.35
WP 18:00:00 NR 15.04 137.60
WP 21:00:00 NR 15.31 136.86
WP 22:00:00 NR 15.40 136.60
WP 1929-09-07 00:00:00 NR 15.59 136.04
WP 03:00:00 NR 15.89 135.18
WP 06:00:00 NR 16.21 134.32
WP 09:00:00 NR 16.57 133.47
WP 10:00:00 NR 16.70 133.20
WP 12:00:00 NR 17.00 132.64
WP 15:00:00 NR 17.48 131.83
WP 18:00:00 NR 17.98 131.07
WP 21:00:00 NR 18.45 130.40
WP 22:00:00 NR 18.60 130.20
WP 1929-09-08 00:00:00 NR 18.83 129.84
WP 03:00:00 NR 19.13 129.40
WP 06:00:00 NR 19.43 129.03
WP 09:00:00 NR 19.77 128.71
WP 10:00:00 NR 19.90 128.60
WP 12:00:00 NR 20.20 128.29
WP 15:00:00 NR 20.70 127.85
WP 18:00:00 NR 21.26 127.49
WP 21:00:00 NR 21.88 127.31
WP 22:00:00 NR 22.10 127.30
WP 1929-09-09 00:00:00 NR 22.57 127.40
WP 03:00:00 NR 23.33 127.73
WP 06:00:00 NR 24.08 128.20
WP 09:00:00 NR 24.79 128.73
WP 10:00:00 NR 25.00 128.90
WP 12:00:00 NR 25.39 129.22
WP 15:00:00 NR 25.88 129.64
WP 18:00:00 NR 26.30 130.03
WP 21:00:00 NR 26.68 130.38
WP 22:00:00 NR 26.80 130.50

Source Information

Agency Information
USA
TOKYO
CMA
HKO
NEWDELHI
REUNION
BOM
NADI
WELLINGTON
DS824
TD9636 cons_worldwide_trop_cyclone_18710101-19891231-003:Line=8378
TD9635
NEUMANN
MLC

All available IBTrACS Data

SEASON BASIN SUBBASIN ISO_TIME_________ NATURE LAT LON DIST2LAND LANDFALL IFLAG USA SSHS TD9636 LAT TD9636 LON TD9636 STAGE STORM SPEED STORM DIR
Year degrees north degrees east km km 1 degrees north degrees east kts degrees
1929 WP MM 1929-09-05 22:00:00 NR 12.70 143.80 1686 1686 __________O___ -1 12.70 143.80 7 23 293
1929 WP MM 1929-09-06 00:00:00 NR 12.99 143.07 1722 1719 __________P___ -1 12.99 143.07 7 23 292
1929 WP MM 03:00:00 NR 13.42 142.00 1727 1680 __________P___ -1 13.42 142.00 7 22 292
1929 WP MM 06:00:00 NR 13.83 140.96 1680 1582 __________P___ -1 13.83 140.96 7 21 292
1929 WP MM 09:00:00 NR 14.19 140.00 1582 1553 __________P___ -1 14.19 140.00 7 20 291
1929 WP MM 10:00:00 NR 14.30 139.70 1553 1494 __________O___ -1 14.30 139.70 7 18 291
1929 WP MM 12:00:00 NR 14.50 139.13 1494 1414 __________P___ -1 14.50 139.13 7 17 290
1929 WP MM 15:00:00 NR 14.78 138.35 1414 1345 __________P___ -1 14.78 138.35 7 16 290
1929 WP MM 18:00:00 NR 15.04 137.60 1345 1279 __________P___ -1 15.04 137.60 7 15 290
1929 WP MM 21:00:00 NR 15.31 136.86 1279 1251 __________P___ -1 15.31 136.86 7 15 290
1929 WP MM 22:00:00 NR 15.40 136.60 1251 1195 __________O___ -1 15.40 136.60 7 17 290
1929 WP MM 1929-09-07 00:00:00 NR 15.59 136.04 1195 1125 __________P___ -1 15.59 136.04 7 17 290
1929 WP MM 03:00:00 NR 15.89 135.18 1125 1049 __________P___ -1 15.89 135.18 7 18 290
1929 WP MM 06:00:00 NR 16.21 134.32 1049 987 __________P___ -1 16.21 134.32 7 18 293
1929 WP MM 09:00:00 NR 16.57 133.47 992 970 __________P___ -1 16.57 133.47 7 18 295
1929 WP MM 10:00:00 NR 16.70 133.20 970 934 __________O___ -1 16.70 133.20 7 18 298
1929 WP MM 12:00:00 NR 17.00 132.64 934 888 __________P___ -1 17.00 132.64 7 18 301
1929 WP MM 15:00:00 NR 17.48 131.83 888 844 __________P___ -1 17.48 131.83 7 18 303
1929 WP MM 18:00:00 NR 17.98 131.07 850 815 __________P___ -1 17.98 131.07 7 17 306
1929 WP MM 21:00:00 NR 18.45 130.40 821 812 __________P___ -1 18.45 130.40 7 16 307
1929 WP MM 22:00:00 NR 18.60 130.20 812 791 __________O___ -1 18.60 130.20 7 13 305
1929 WP MM 1929-09-08 00:00:00 NR 18.83 129.84 791 751 __________P___ -1 18.83 129.84 7 11 305
1929 WP MM 03:00:00 NR 19.13 129.40 751 713 __________P___ -1 19.13 129.40 7 10 308
1929 WP MM 06:00:00 NR 19.43 129.03 713 688 __________P___ -1 19.43 129.03 7 9 314
1929 WP MM 09:00:00 NR 19.77 128.71 690 682 __________P___ -1 19.77 128.71 7 9 319
1929 WP MM 10:00:00 NR 19.90 128.60 682 657 __________O___ -1 19.90 128.60 7 12 318
1929 WP MM 12:00:00 NR 20.20 128.29 661 631 __________P___ -1 20.20 128.29 7 13 318
1929 WP MM 15:00:00 NR 20.70 127.85 631 626 __________P___ -1 20.70 127.85 7 13 325
1929 WP MM 18:00:00 NR 21.26 127.49 633 620 __________P___ -1 21.26 127.49 7 13 337
1929 WP MM 21:00:00 NR 21.88 127.31 620 612 __________P___ -1 21.88 127.31 7 13 348
1929 WP MM 22:00:00 NR 22.10 127.30 612 598 __________O___ -1 22.10 127.30 7 14 6
1929 WP MM 1929-09-09 00:00:00 NR 22.57 127.40 599 595 __________P___ -1 22.57 127.40 7 16 18
1929 WP MM 03:00:00 NR 23.33 127.73 604 609 __________P___ -1 23.33 127.73 7 17 26
1929 WP MM 06:00:00 NR 24.08 128.20 634 634 __________P___ -1 24.08 128.20 7 17 32
1929 WP MM 09:00:00 NR 24.79 128.73 675 685 __________P___ -1 24.79 128.73 7 17 35
1929 WP MM 10:00:00 NR 25.00 128.90 692 642 __________O___ -1 25.00 128.90 7 15 36
1929 WP MM 12:00:00 NR 25.39 129.22 642 579 __________P___ -1 25.39 129.22 7 13 37
1929 WP MM 15:00:00 NR 25.88 129.64 579 529 __________P___ -1 25.88 129.64 7 12 39
1929 WP MM 18:00:00 NR 26.30 130.03 529 480 __________P___ -1 26.30 130.03 7 10 40
1929 WP MM 21:00:00 NR 26.68 130.38 480 469 __________P___ -1 26.68 130.38 7 10 40
1929 WP MM 22:00:00 NR 26.80 130.50 469 __________O___ -1 26.80 130.50 7 10 40